Terminal Aerodrome Forecast
Issued by NWS Billings, MT

Home | Current Version | Previous Version | Text Only | Print | Product List | Glossary On
Versions: 1 2 3 4 5 6 7 8 9 10 11 12 13 14 15 16 17 18 19 20 21 22 23 24 25 26 27 28 29 30 31 32 33 34 35 36 37 38 39 40 41 42 43 44 45 46 47 48
000
FTUS45 KBYZ 200527 CCA
TAFMLS
TAF COR
KMLS 200527Z 2006/2106 32015G24KT P6SM -SHRA VCTS BKN060CB OVC100
     FM200900 32010G20KT P6SM BKN080
     FM201500 VRB06KT P6SM BKN100
     FM202100 14011KT P6SM VCTS SCT050CB BKN100
     FM210100 10012G25KT P6SM SHRA VCTS SCT050CB BKN100=

USA.gov is the U.S. government's official web portal to all federal, state and local government web resources and services.